Time;durP1;ratioP1;P1;durP2;ratioP2;P2;SDS_P1;SDS_P2;PMS_P1;PMS_P2;Temp;Humidity;BMP_temperature;BMP_pressure;BME280_temperature;BME280_humidity;BME280_pressure;Samples;Min_cycle;Max_cycle;Signal;HPM_P1;HPM_P2
2022/01/27 00:01:43;;;;;;;11.63;9.73;;;;;;;2.32;67.62;100339.53;5115569;28;20609;-68
2022/01/27 00:04:16;;;;;;;10.30;9.23;;;;;;;2.23;67.85;100342.88;5116529;28;20511;-68
2022/01/27 00:06:42;;;;;;;10.40;9.30;;;;;;;2.30;68.60;100338.84;5115957;28;20440;-68
2022/01/27 00:09:17;;;;;;;10.60;9.53;;;;;;;2.23;68.66;100345.50;5115241;28;20501;-67
2022/01/27 00:11:46;;;;;;;12.00;9.53;;;;;;;2.15;69.05;100342.66;5116300;28;20428;-68
2022/01/27 00:14:15;;;;;;;12.20;10.33;;;;;;;2.15;69.19;100345.28;5115934;28;20444;-68
2022/01/27 00:16:52;;;;;;;16.90;10.50;;;;;;;2.19;68.49;100349.34;5115378;28;20434;-68
2022/01/27 00:19:18;;;;;;;13.50;10.23;;;;;;;2.14;69.56;100354.13;5115864;28;20460;-69
2022/01/27 00:21:45;;;;;;;11.00;9.90;;;;;;;2.13;69.21;100349.00;5115348;28;20436;-69
2022/01/27 00:24:13;;;;;;;11.20;10.10;;;;;;;2.13;69.23;100355.06;5114999;28;20448;-70
2022/01/27 00:26:40;;;;;;;11.03;9.93;;;;;;;2.22;69.58;100346.47;5115527;28;20433;-69
2022/01/27 00:29:06;;;;;;;13.80;10.60;;;;;;;2.25;69.69;100345.38;5115459;28;20897;-69
2022/01/27 00:31:33;;;;;;;11.50;9.87;;;;;;;2.24;69.21;100347.16;5115385;27;20497;-69
2022/01/27 00:34:03;;;;;;;15.73;10.93;;;;;;;2.18;69.22;100342.44;5114954;28;20476;-69
2022/01/27 00:36:30;;;;;;;10.67;9.60;;;;;;;2.25;68.89;100338.34;5115925;28;20441;-69
2022/01/27 00:38:57;;;;;;;13.00;11.00;;;;;;;2.30;69.81;100336.22;5114630;28;20512;-68
2022/01/27 00:41:25;;;;;;;12.20;10.87;;;;;;;2.31;69.43;100337.88;5114955;28;20432;-68
2022/01/27 00:43:52;;;;;;;11.80;10.53;;;;;;;2.33;69.72;100335.94;5114933;28;20906;-68
2022/01/27 00:46:19;;;;;;;11.93;10.73;;;;;;;2.31;69.36;100327.38;5114559;28;20440;-68
2022/01/27 00:48:48;;;;;;;14.53;11.40;;;;;;;2.33;69.41;100329.88;5115600;27;20436;-68
2022/01/27 00:51:21;;;;;;;14.07;10.87;;;;;;;2.49;69.60;100319.81;5114722;27;20436;-68
2022/01/27 00:53:52;;;;;;;15.30;11.67;;;;;;;2.51;69.49;100317.91;5114035;28;20834;-69
2022/01/27 00:56:24;;;;;;;13.73;10.97;;;;;;;2.46;70.07;100325.31;5114412;28;21012;-69
2022/01/27 00:59:02;;;;;;;15.57;11.93;;;;;;;2.45;69.64;100321.03;5114226;28;20991;-69
2022/01/27 01:01:34;;;;;;;14.67;11.07;;;;;;;2.54;69.48;100323.75;5114341;28;20485;-68
2022/01/27 01:04:04;;;;;;;11.40;10.23;;;;;;;2.48;69.55;100318.97;5115004;28;20868;-68
2022/01/27 01:06:39;;;;;;;11.37;9.97;;;;;;;2.51;69.51;100321.38;5114764;28;20443;-69
2022/01/27 01:15:05;;;;;;;11.77;10.03;;;;;;;2.56;69.11;100310.47;5113977;28;20456;-69
2022/01/27 01:17:39;;;;;;;11.47;9.47;;;;;;;2.53;68.95;100306.31;5114530;28;20432;-69
2022/01/27 01:20:24;;;;;;;15.03;11.33;;;;;;;2.35;68.81;100286.00;5114085;28;20911;-69
2022/01/27 01:34:14;;;;;;;10.07;9.03;;;;;;;2.55;68.08;100298.34;5088849;28;20468;-68
2022/01/27 01:36:53;;;;;;;10.20;9.30;;;;;;;2.53;67.86;100295.84;5114257;28;20493;-68
2022/01/27 01:39:21;;;;;;;10.40;8.63;;;;;;;2.52;67.88;100298.56;5106073;28;21010;-69
2022/01/27 01:41:47;;;;;;;10.67;9.57;;;;;;;2.31;67.86;100264.47;5092561;28;20437;-68
2022/01/27 01:44:14;;;;;;;12.73;9.27;;;;;;;2.46;68.56;100293.84;5092954;28;20538;-68
2022/01/27 01:46:42;;;;;;;12.73;9.57;;;;;;;2.51;67.94;100297.75;5092344;28;20491;-68
2022/01/27 01:49:09;;;;;;;13.47;9.33;;;;;;;2.56;68.41;100289.50;5092916;28;20437;-68
2022/01/27 01:51:38;;;;;;;10.03;9.03;;;;;;;2.51;68.77;100292.53;5093459;28;20490;-68
2022/01/27 01:54:05;;;;;;;10.17;9.13;;;;;;;2.53;68.28;100295.84;5092820;28;21014;-68
2022/01/27 01:56:32;;;;;;;9.73;8.77;;;;;;;2.56;68.09;100290.34;5092777;28;20494;-68
2022/01/27 01:58:59;;;;;;;10.03;9.00;;;;;;;2.57;67.69;100292.00;5093207;28;20505;-68
2022/01/27 02:01:26;;;;;;;12.03;9.27;;;;;;;2.51;67.53;100292.53;5093203;28;20430;-68
2022/01/27 02:03:54;;;;;;;11.53;9.30;;;;;;;2.47;67.36;100283.25;5092117;28;20441;-68
2022/01/27 02:06:27;;;;;;;9.87;8.97;;;;;;;2.51;66.78;100281.19;5092589;28;20937;-68
2022/01/27 02:09:12;;;;;;;8.53;7.77;;;;;;;2.50;66.57;100285.63;5093643;28;20460;-68
2022/01/27 02:19:56;;;;;;;10.03;7.83;;;;;;;2.56;66.26;100274.63;5092754;28;20452;-68
2022/01/27 02:22:23;;;;;;;11.10;8.70;;;;;;;2.54;66.57;100286.19;5092399;28;20471;-68
2022/01/27 02:24:51;;;;;;;9.10;8.20;;;;;;;2.58;66.49;100277.94;5092873;28;20437;-68
2022/01/27 02:27:20;;;;;;;10.33;8.57;;;;;;;2.52;66.50;100267.97;5093458;28;20437;-68
2022/01/27 02:29:47;;;;;;;10.33;9.27;;;;;;;2.63;67.07;100285.44;5092325;28;20474;-68
2022/01/27 02:32:16;;;;;;;11.23;9.40;;;;;;;2.69;66.86;100285.75;5092590;28;20441;-68
2022/01/27 02:34:44;;;;;;;10.53;8.77;;;;;;;2.63;66.86;100278.41;5092507;28;20542;-69
2022/01/27 02:37:13;;;;;;;11.47;9.03;;;;;;;2.58;66.61;100283.16;5092154;28;20987;-69
2022/01/27 02:39:40;;;;;;;11.07;9.97;;;;;;;2.58;67.46;100283.16;5092653;28;20472;-69
2022/01/27 02:42:15;;;;;;;9.83;8.80;;;;;;;2.62;66.54;100283.78;5092398;28;20524;-69
2022/01/27 02:44:56;;;;;;;10.00;9.03;;;;;;;2.63;67.29;100277.56;5092186;28;20429;-69
2022/01/27 02:47:25;;;;;;;13.23;9.87;;;;;;;2.62;66.80;100284.59;5092570;28;20434;-68
2022/01/27 02:49:52;;;;;;;13.97;10.70;;;;;;;2.58;67.54;100283.16;5092317;28;20505;-68
2022/01/27 02:52:20;;;;;;;10.67;9.57;;;;;;;2.54;67.74;100276.53;5091932;28;20826;-69
2022/01/27 02:54:46;;;;;;;11.77;9.70;;;;;;;2.53;67.18;100272.25;5092278;28;20437;-69
2022/01/27 02:57:13;;;;;;;10.23;9.23;;;;;;;2.48;68.06;100277.03;5092224;28;20445;-69
2022/01/27 02:59:40;;;;;;;11.23;10.00;;;;;;;2.46;68.63;100278.97;5092443;28;20472;-68
2022/01/27 03:02:07;;;;;;;11.43;10.17;;;;;;;2.44;68.68;100270.38;5091849;28;20437;-68
2022/01/27 03:04:34;;;;;;;11.90;10.47;;;;;;;2.46;68.68;100265.84;5092347;28;20510;-68
2022/01/27 03:07:04;;;;;;;10.93;9.93;;;;;;;2.51;68.76;100276.78;5092371;28;20452;-68
2022/01/27 03:09:33;;;;;;;11.13;10.03;;;;;;;2.59;68.43;100269.13;5092945;28;20555;-68
2022/01/27 03:12:02;;;;;;;12.57;10.20;;;;;;;2.59;68.24;100256.00;5092105;28;20478;-68
2022/01/27 03:14:29;;;;;;;11.33;9.30;;;;;;;2.70;68.31;100263.81;5092345;28;20437;-67
2022/01/27 03:16:58;;;;;;;11.00;9.27;;;;;;;2.69;68.87;100272.63;5095767;28;20433;-67
2022/01/27 03:19:25;;;;;;;10.30;9.13;;;;;;;2.71;69.13;100262.03;5096301;28;20991;-67
2022/01/27 03:21:53;;;;;;;10.10;9.03;;;;;;;2.71;68.67;100270.72;5096544;28;20494;-67
2022/01/27 03:24:20;;;;;;;15.33;10.20;;;;;;;2.77;68.95;100267.59;5095762;28;20975;-68
2022/01/27 03:26:48;;;;;;;11.13;9.67;;;;;;;2.86;68.40;100266.81;5096326;28;20494;-68
2022/01/27 03:29:16;;;;;;;10.73;9.57;;;;;;;2.82;68.33;100259.34;5095701;28;20952;-68
2022/01/27 03:31:43;;;;;;;10.27;9.20;;;;;;;2.76;68.79;100271.19;5095710;28;20448;-68
2022/01/27 03:34:10;;;;;;;11.00;9.00;;;;;;;2.66;68.13;100261.56;5096372;28;20469;-68
2022/01/27 03:36:37;;;;;;;9.93;8.90;;;;;;;2.60;67.67;100260.28;5095522;28;20608;-68
2022/01/27 03:39:04;;;;;;;9.33;8.43;;;;;;;2.55;67.14;100262.47;5095719;28;20469;-68
2022/01/27 03:41:33;;;;;;;9.17;8.40;;;;;;;2.60;66.83;100257.66;5095503;28;20444;-68
2022/01/27 03:44:01;;;;;;;10.07;8.53;;;;;;;2.61;66.71;100263.75;5095414;28;20884;-68
2022/01/27 03:46:28;;;;;;;8.67;7.33;;;;;;;2.65;66.61;100265.97;5095674;28;20433;-68
2022/01/27 03:48:55;;;;;;;9.37;7.60;;;;;;;2.66;66.35;100270.25;5095855;28;20509;-68
2022/01/27 03:51:22;;;;;;;8.00;7.40;;;;;;;2.69;65.43;100272.63;5095726;28;20450;-68
2022/01/27 03:53:49;;;;;;;12.30;8.30;;;;;;;2.67;65.28;100271.94;5095749;28;20506;-68
2022/01/27 03:56:16;;;;;;;11.70;8.90;;;;;;;2.69;65.01;100280.50;5095160;28;20241;-68
2022/01/27 03:58:42;;;;;;;12.70;9.60;;;;;;;2.66;64.73;100278.13;5095283;28;20441;-68
2022/01/27 04:01:10;;;;;;;11.03;9.37;;;;;;;2.69;64.38;100277.06;5095852;28;20799;-68
2022/01/27 04:03:38;;;;;;;8.63;7.70;;;;;;;2.67;64.50;100286.84;5095838;28;20505;-68
2022/01/27 04:06:07;;;;;;;9.20;7.93;;;;;;;2.73;64.15;100287.16;5095274;28;20441;-68
2022/01/27 04:08:36;;;;;;;8.37;7.60;;;;;;;2.82;63.67;100280.34;5096617;28;20441;-68
2022/01/27 04:11:03;;;;;;;10.23;7.93;;;;;;;2.79;63.82;100281.41;5095464;28;20644;-69
2022/01/27 04:13:30;;;;;;;8.73;7.87;;;;;;;2.84;63.25;100289.72;5094822;28;20433;-69
2022/01/27 04:15:56;;;;;;;10.90;8.67;;;;;;;2.82;63.28;100291.63;5094871;28;20859;-68
2022/01/27 04:18:25;;;;;;;8.73;7.83;;;;;;;2.88;63.06;100296.38;5094710;28;20191;-68
2022/01/27 04:20:51;;;;;;;9.90;8.37;;;;;;;2.90;62.63;100299.69;5094583;28;21019;-68
2022/01/27 04:23:19;;;;;;;8.97;8.20;;;;;;;2.88;62.46;100296.38;5094485;28;20441;-68
2022/01/27 04:25:46;;;;;;;9.10;7.57;;;;;;;3.02;61.86;100298.69;5095608;28;20448;-68
2022/01/27 04:28:18;;;;;;;8.37;7.57;;;;;;;3.04;61.34;100302.03;5093767;28;20433;-68
2022/01/27 04:30:45;;;;;;;9.47;8.47;;;;;;;3.03;60.90;100310.84;5095050;28;20512;-68
2022/01/27 04:33:11;;;;;;;10.17;8.43;;;;;;;3.11;61.16;100305.78;5094749;28;20207;-69
2022/01/27 04:35:45;;;;;;;8.20;7.47;;;;;;;3.33;60.77;100310.88;5095466;28;20957;-69
2022/01/27 04:38:23;;;;;;;8.27;7.47;;;;;;;3.50;59.88;100307.66;5094649;28;20475;-68
2022/01/27 04:40:57;;;;;;;7.63;6.93;;;;;;;3.55;59.70;100323.84;5095376;28;20206;-68
2022/01/27 04:43:31;;;;;;;9.33;6.63;;;;;;;3.59;59.78;100325.25;5095443;28;20551;-69
2022/01/27 04:46:06;;;;;;;8.17;7.40;;;;;;;3.55;59.66;100334.34;5095092;28;20660;-68
2022/01/27 04:48:38;;;;;;;8.07;7.47;;;;;;;3.54;60.76;100330.06;5095002;28;20573;-68
2022/01/27 04:51:12;;;;;;;8.10;7.47;;;;;;;3.63;61.82;100346.84;5094919;28;20191;-68
2022/01/27 04:53:44;;;;;;;9.77;8.77;;;;;;;3.57;62.50;100342.09;5094670;28;20210;-68
2022/01/27 04:56:13;;;;;;;8.93;8.13;;;;;;;3.52;63.47;100339.84;5095215;28;20221;-68
2022/01/27 04:58:42;;;;;;;8.83;8.00;;;;;;;3.49;62.86;100344.53;5094336;28;20195;-68
2022/01/27 05:01:09;;;;;;;13.67;9.17;;;;;;;3.41;63.21;100339.97;5094125;28;20279;-68
2022/01/27 05:03:41;;;;;;;10.77;8.13;;;;;;;3.44;63.85;100339.66;5094654;28;20241;-68
2022/01/27 05:06:09;;;;;;;9.40;8.43;;;;;;;3.48;63.18;100341.06;5094417;28;20436;-68
2022/01/27 05:08:36;;;;;;;12.00;10.70;;;;;;;3.41;64.38;100350.47;5093718;28;20196;-68
2022/01/27 05:11:08;;;;;;;11.93;8.93;;;;;;;3.55;63.92;100355.34;5093891;28;20195;-68
2022/01/27 05:13:41;;;;;;;9.90;8.40;;;;;;;3.60;63.90;100350.53;5093807;28;20625;-68
2022/01/27 05:16:08;;;;;;;9.87;8.87;;;;;;;3.68;62.97;100355.97;5094736;28;20588;-67
2022/01/27 05:18:35;;;;;;;9.10;8.30;;;;;;;3.70;63.62;100364.56;5093828;28;20190;-67
2022/01/27 05:21:02;;;;;;;8.77;7.93;;;;;;;3.83;62.89;100364.31;5093328;28;20223;-66
2022/01/27 05:23:31;;;;;;;12.37;8.73;;;;;;;3.93;62.55;100368.66;5093728;28;20191;-67
2022/01/27 05:25:58;;;;;;;8.87;7.97;;;;;;;4.03;61.90;100372.16;5093241;28;20196;-67
2022/01/27 05:28:25;;;;;;;9.60;8.20;;;;;;;4.12;61.67;100366.09;5094496;28;20187;-67
2022/01/27 05:30:52;;;;;;;10.77;8.73;;;;;;;4.19;61.36;100369.03;5093652;28;20756;-67
2022/01/27 05:33:19;;;;;;;15.00;10.07;;;;;;;4.19;61.93;100351.47;5093992;28;20252;-66
2022/01/27 05:35:46;;;;;;;14.20;11.10;;;;;;;4.31;62.16;100371.44;5094446;28;20226;-66
2022/01/27 05:38:14;;;;;;;22.13;12.03;;;;;;;4.35;61.71;100367.56;5093271;28;20287;-66
2022/01/27 05:40:43;;;;;;;21.30;10.90;;;;;;;4.28;61.89;100361.16;5093226;28;20220;-67
2022/01/27 05:43:10;;;;;;;11.00;9.77;;;;;;;4.32;61.29;100372.25;5093018;28;20191;-65
2022/01/27 05:45:39;;;;;;;16.43;9.87;;;;;;;4.29;62.16;100369.91;5092727;28;20196;-65
2022/01/27 05:48:06;;;;;;;13.97;9.03;;;;;;;4.99;81.06;100363.44;5092935;28;20731;-66
2022/01/27 05:50:33;;;;;;;18.70;9.43;;;;;;;5.25;64.67;100390.88;5093180;28;20593;-66
2022/01/27 05:52:59;;;;;;;16.93;10.13;;;;;;;5.28;61.37;100389.75;5092834;28;20654;-66
2022/01/27 05:55:26;;;;;;;18.00;10.83;;;;;;;5.23;60.32;100389.34;5093118;28;20204;-66
2022/01/27 05:57:54;;;;;;;19.70;11.23;;;;;;;5.17;60.20;100393.38;5093682;28;20195;-66
2022/01/27 06:00:21;;;;;;;13.67;10.80;;;;;;;5.19;59.43;100404.59;5092398;28;20284;-66
2022/01/27 06:02:48;;;;;;;19.13;11.07;;;;;;;5.14;59.44;100398.91;5092088;28;20312;-66
2022/01/27 06:05:15;;;;;;;15.73;10.43;;;;;;;5.13;59.52;100402.53;5092810;28;20244;-66
2022/01/27 06:07:42;;;;;;;16.77;11.27;;;;;;;5.13;59.38;100401.69;5092789;28;20193;-66
2022/01/27 06:10:09;;;;;;;16.87;10.37;;;;;;;5.11;59.00;100414.19;5092740;28;20217;-66
2022/01/27 06:12:45;;;;;;;15.17;10.47;;;;;;;5.07;59.13;100405.69;5092706;28;20188;-67
2022/01/27 06:15:13;;;;;;;24.57;11.70;;;;;;;5.07;59.27;100410.97;5092709;28;20236;-67
2022/01/27 06:17:39;;;;;;;26.47;12.23;;;;;;;5.18;64.30;100405.56;5089565;28;20548;-66
2022/01/27 06:20:08;;;;;;;17.60;11.90;;;;;;;5.18;61.43;100397.66;5091517;28;20210;-66
2022/01/27 06:22:35;;;;;;;19.00;10.60;;;;;;;5.22;60.47;100412.22;5091706;28;20191;-67
2022/01/27 06:25:02;;;;;;;21.83;11.87;;;;;;;5.19;59.28;100412.50;5092541;28;20187;-68
2022/01/27 06:27:28;;;;;;;24.23;12.30;;;;;;;5.21;60.16;100415.84;5091874;28;20260;-67
2022/01/27 06:29:55;;;;;;;19.57;11.93;;;;;;;5.21;59.50;100415.84;5092390;28;20241;-68
2022/01/27 06:32:23;;;;;;;26.13;13.50;;;;;;;5.18;59.74;100415.25;5088279;28;20627;-65
2022/01/27 06:34:50;;;;;;;29.80;14.37;;;;;;;5.10;59.63;100415.13;5091677;28;20280;-66
2022/01/27 06:37:16;;;;;;;23.40;12.37;;;;;;;4.97;59.05;100414.56;5088331;28;20623;-67
2022/01/27 06:39:43;;;;;;;46.87;17.23;;;;;;;4.96;59.81;100419.03;5091672;28;20246;-67
2022/01/27 06:42:10;;;;;;;38.40;15.63;;;;;;;5.00;59.63;100416.94;5092144;28;20190;-67
2022/01/27 06:44:37;;;;;;;47.67;19.23;;;;;;;4.99;59.45;100408.19;5091896;28;20620;-67
2022/01/27 06:47:04;;;;;;;45.00;17.07;;;;;;;4.97;59.16;100423.31;5091817;28;20269;-68
2022/01/27 06:49:32;;;;;;;38.20;17.10;;;;;;;4.99;59.46;100424.00;5092306;28;20264;-66
2022/01/27 06:51:59;;;;;;;34.10;16.40;;;;;;;5.08;59.20;100420.56;5091568;28;20197;-66
2022/01/27 06:54:25;;;;;;;28.87;14.77;;;;;;;5.11;58.99;100425.50;5091818;28;20252;-66
2022/01/27 06:56:52;;;;;;;37.93;17.80;;;;;;;5.19;59.28;100425.66;5091745;28;20192;-65
2022/01/27 06:59:19;;;;;;;38.70;18.70;;;;;;;5.26;59.12;100434.66;5091668;28;20670;-65
2022/01/27 07:01:46;;;;;;;32.73;18.30;;;;;;;5.30;59.06;100440.47;5091760;28;20291;-66
2022/01/27 07:04:12;;;;;;;32.00;15.77;;;;;;;5.35;58.47;100439.09;5092156;28;20252;-67
2022/01/27 07:06:40;;;;;;;24.80;15.37;;;;;;;5.46;58.21;100443.38;5091661;28;20252;-65
2022/01/27 07:09:07;;;;;;;16.47;11.30;;;;;;;5.53;57.62;100437.44;5091967;28;20191;-64
2022/01/27 07:11:34;;;;;;;16.53;9.70;;;;;;;5.54;56.80;100439.09;5091892;28;20256;-66
2022/01/27 07:14:01;;;;;;;12.87;8.50;;;;;;;5.56;56.79;100450.31;5092255;28;20192;-66
2022/01/27 07:16:28;;;;;;;16.80;8.80;;;;;;;5.47;57.05;100451.16;5092023;28;20197;-66
2022/01/27 07:18:55;;;;;;;17.53;10.70;;;;;;;5.31;56.85;100416.66;5105997;28;20667;-66
2022/01/27 07:21:21;;;;;;;22.57;11.97;;;;;;;5.53;57.17;100447.97;5111911;28;20762;-67
2022/01/27 07:23:49;;;;;;;25.87;11.37;;;;;;;5.57;56.81;100457.22;5112330;28;20194;-64
2022/01/27 07:26:16;;;;;;;23.63;12.30;;;;;;;5.52;56.54;100463.91;5101582;28;20203;-67
2022/01/27 07:28:43;;;;;;;24.80;11.93;;;;;;;5.46;57.01;100452.13;5092142;28;20245;-68
2022/01/27 07:31:10;;;;;;;28.97;12.97;;;;;;;5.50;57.11;100450.88;5092062;28;20228;-65
2022/01/27 07:33:36;;;;;;;21.63;12.37;;;;;;;5.68;57.03;100458.91;5091188;28;20655;-68
2022/01/27 07:36:03;;;;;;;29.17;12.20;;;;;;;5.79;56.56;100464.84;5091651;28;20242;-66
2022/01/27 07:38:30;;;;;;;16.83;11.43;;;;;;;5.88;55.73;100454.44;5091934;28;20191;-65
2022/01/27 07:40:58;;;;;;;18.17;11.27;;;;;;;5.93;55.97;100446.94;5091525;28;20264;-65
2022/01/27 07:43:25;;;;;;;20.37;11.37;;;;;;;5.99;55.75;100449.81;5091109;28;20572;-66
2022/01/27 07:45:51;;;;;;;24.67;13.37;;;;;;;5.87;56.12;100447.53;5092017;28;20254;-65
2022/01/27 07:48:18;;;;;;;28.97;13.70;;;;;;;5.89;55.46;100458.75;5091233;28;20203;-65
2022/01/27 07:50:45;;;;;;;25.87;12.30;;;;;;;5.97;55.25;100464.13;5091595;28;20199;-65
2022/01/27 07:53:12;;;;;;;27.43;10.57;;;;;;;6.05;53.94;100464.25;5091018;28;20207;-64
2022/01/27 07:55:39;;;;;;;19.10;11.07;;;;;;;6.03;54.44;100471.47;5091569;28;20268;-65
2022/01/27 07:58:07;;;;;;;13.77;10.63;;;;;;;6.01;53.99;100463.72;5088114;28;20219;-64
2022/01/27 08:00:34;;;;;;;22.63;11.77;;;;;;;6.05;53.94;100469.53;5091738;28;20275;-64
2022/01/27 08:03:00;;;;;;;24.33;12.37;;;;;;;6.14;53.74;100473.94;5094891;28;20199;-64
2022/01/27 08:05:27;;;;;;;23.60;10.43;;;;;;;6.17;53.40;100478.94;5094954;28;20195;-64
2022/01/27 08:07:54;;;;;;;11.23;10.03;;;;;;;6.20;53.29;100478.66;5095175;28;20201;-64
2022/01/27 08:10:21;;;;;;;16.70;11.27;;;;;;;6.19;53.09;100479.59;5094898;28;20260;-65
2022/01/27 08:12:47;;;;;;;15.23;10.40;;;;;;;6.22;53.35;100481.97;5092686;28;20619;-64
2022/01/27 08:15:19;;;;;;;21.60;10.60;;;;;;;6.23;53.25;100483.63;5094197;28;20191;-65
2022/01/27 08:17:46;;;;;;;24.80;10.03;;;;;;;6.17;53.05;100492.13;5095064;28;20179;-64
2022/01/27 08:20:13;;;;;;;17.37;9.80;;;;;;;6.20;52.96;100494.47;5091667;28;20780;-65
2022/01/27 08:22:43;;;;;;;13.77;9.87;;;;;;;6.21;53.00;100488.22;5091267;28;20290;-65
2022/01/27 08:25:10;;;;;;;21.60;12.53;;;;;;;6.20;53.18;100494.47;5094004;28;20753;-66
2022/01/27 08:27:38;;;;;;;19.80;11.67;;;;;;;6.09;53.65;100494.63;5094828;28;20192;-65
2022/01/27 08:30:06;;;;;;;13.00;9.70;;;;;;;5.88;54.30;100494.81;5094414;28;20568;-65
2022/01/27 08:32:47;;;;;;;13.20;11.03;;;;;;;5.93;54.24;100497.03;5094187;28;20624;-64
2022/01/27 08:35:15;;;;;;;16.37;10.80;;;;;;;5.86;54.27;100495.94;5094375;28;20698;-69
2022/01/27 08:37:42;;;;;;;23.80;11.23;;;;;;;5.91;54.63;100496.34;5093300;28;20201;-65
2022/01/27 08:40:11;;;;;;;10.93;8.30;;;;;;;5.82;54.95;100494.53;5094058;28;20735;-66
2022/01/27 08:42:40;;;;;;;17.00;11.63;;;;;;;5.89;55.00;100496.50;5093629;28;20252;-65
2022/01/27 08:45:09;;;;;;;15.13;9.40;;;;;;;5.98;54.40;100492.16;5094492;28;20278;-64
2022/01/27 08:47:38;;;;;;;16.97;10.47;;;;;;;5.93;54.52;100497.88;5093891;28;20194;-64
2022/01/27 08:50:07;;;;;;;24.37;11.00;;;;;;;5.87;54.70;100497.63;5094189;28;20192;-67
2022/01/27 08:52:34;;;;;;;14.67;10.03;;;;;;;5.86;55.12;100495.94;5093888;28;20225;-65
2022/01/27 08:55:01;;;;;;;14.63;8.87;;;;;;;6.07;54.92;100504.47;5093716;28;20199;-66
2022/01/27 08:57:28;;;;;;;11.60;9.47;;;;;;;6.14;55.27;100492.41;5093745;28;20187;-64
2022/01/27 08:59:55;;;;;;;7.40;6.43;;;;;;;6.25;56.27;100494.88;5093770;28;20731;-65
2022/01/27 09:02:22;;;;;;;8.47;7.67;;;;;;;6.31;55.71;100497.75;5093939;28;20215;-65
2022/01/27 09:04:50;;;;;;;10.20;8.33;;;;;;;6.56;54.70;100498.91;5090886;28;20212;-66
2022/01/27 09:07:17;;;;;;;8.90;8.10;;;;;;;6.80;54.71;100492.13;5094273;28;20193;-66
2022/01/27 09:09:44;;;;;;;24.63;10.90;;;;;;;7.00;54.01;100500.75;5093998;28;20622;-66
2022/01/27 09:12:11;;;;;;;23.07;12.80;;;;;;;6.98;53.47;100500.88;5093832;28;20272;-67
2022/01/27 09:14:41;;;;;;;12.77;8.40;;;;;;;7.00;53.69;100495.47;5093054;28;20245;-67
2022/01/27 09:17:08;;;;;;;11.90;7.70;;;;;;;7.07;53.39;100496.53;5093920;28;20194;-67
2022/01/27 09:19:37;;;;;;;8.33;7.63;;;;;;;7.26;53.38;100501.69;5108031;28;20221;-66
2022/01/27 09:22:11;;;;;;;9.60;6.60;;;;;;;7.32;53.80;100498.44;5099574;28;20259;-67
2022/01/27 09:24:41;;;;;;;8.77;7.90;;;;;;;7.20;53.44;100497.00;5093528;28;20193;-66
2022/01/27 09:27:08;;;;;;;13.30;7.73;;;;;;;7.26;53.57;100497.22;5093502;28;20227;-65
2022/01/27 09:29:35;;;;;;;17.37;8.53;;;;;;;7.10;53.13;100498.88;5093457;28;20194;-66
2022/01/27 09:32:03;;;;;;;11.30;8.23;;;;;;;7.04;53.60;100494.19;5093960;28;20191;-68
2022/01/27 09:34:30;;;;;;;10.63;7.30;;;;;;;6.93;54.11;100489.09;5086728;28;20242;-66
2022/01/27 09:36:57;;;;;;;7.73;7.13;;;;;;;6.86;54.18;100478.31;5090201;28;20663;-67
2022/01/27 09:39:26;;;;;;;8.33;7.63;;;;;;;6.83;54.99;100489.19;5090140;28;20212;-65
2022/01/27 09:41:56;;;;;;;7.37;6.83;;;;;;;6.89;54.89;100479.81;5093434;28;20272;-66
2022/01/27 09:44:27;;;;;;;8.20;7.60;;;;;;;7.00;54.36;100482.25;5093257;28;20191;-64
2022/01/27 09:46:56;;;;;;;9.17;8.27;;;;;;;7.08;54.27;100477.06;5093266;28;20248;-66
2022/01/27 09:49:31;;;;;;;8.13;7.33;;;;;;;7.22;53.54;100473.91;5092819;28;20281;-66
2022/01/27 09:51:58;;;;;;;9.57;7.83;;;;;;;6.92;54.24;100469.81;5093716;28;20209;-67
2022/01/27 09:54:27;;;;;;;9.80;6.73;;;;;;;7.14;53.63;100466.72;5092433;28;20198;-68
2022/01/27 09:56:54;;;;;;;11.43;7.23;;;;;;;7.09;54.12;100460.22;5092999;28;20322;-67
2022/01/27 09:59:21;;;;;;;20.20;8.60;;;;;;;7.13;53.87;100453.66;5093204;28;20191;-68
2022/01/27 10:01:57;;;;;;;8.17;7.07;;;;;;;7.30;53.00;100458.09;5092763;28;20222;-66
2022/01/27 10:04:40;;;;;;;6.80;6.10;;;;;;;7.43;52.41;100450.66;5092556;28;20218;-66
2022/01/27 10:07:07;;;;;;;8.60;7.70;;;;;;;7.40;52.60;100435.09;5093292;28;20190;-62
2022/01/27 10:09:35;;;;;;;7.50;6.50;;;;;;;7.37;53.42;100436.22;5092073;28;20194;-62
2022/01/27 10:12:03;;;;;;;9.50;6.80;;;;;;;7.07;53.48;100414.66;5092341;28;20195;-63
2022/01/27 10:14:34;;;;;;;32.83;14.83;;;;;;;7.09;54.49;100439.09;5092091;28;20195;-63
2022/01/27 10:17:03;;;;;;;8.07;7.20;;;;;;;6.98;55.01;100434.84;5092817;28;20234;-63
2022/01/27 10:19:30;;;;;;;11.87;8.97;;;;;;;6.89;55.46;100424.34;5092705;28;20226;-62
2022/01/27 10:22:01;;;;;;;8.40;7.30;;;;;;;7.11;54.95;100429.22;5079001;28;20259;-63
2022/01/27 10:24:30;;;;;;;9.27;7.87;;;;;;;7.01;55.32;100423.16;5071584;28;20185;-63
2022/01/27 10:27:27;;;;;;;8.93;8.10;;;;;;;6.93;55.56;100416.00;5087259;28;20200;-63
2022/01/27 10:30:36;;;;;;;9.33;8.43;;;;;;;7.12;55.67;100422.94;5092050;28;20183;-63
2022/01/27 10:32:53;;;;;;;7.70;7.00;;;;;;;7.36;55.15;100417.88;5091962;28;20574;-65
2022/01/27 10:35:23;;;;;;;8.73;7.83;;;;;;;7.33;54.56;100410.25;5092585;28;20278;-64
2022/01/27 10:37:55;;;;;;;7.73;6.93;;;;;;;7.33;54.67;100412.88;5092346;28;20527;-64
2022/01/27 10:40:23;;;;;;;8.77;8.03;;;;;;;7.13;55.25;100406.09;5081362;28;20253;-64
2022/01/27 10:43:10;;;;;;;15.07;9.00;;;;;;;6.99;55.58;100396.94;5071363;28;20677;-65
2022/01/27 10:45:40;;;;;;;7.87;7.30;;;;;;;7.03;55.62;100400.94;5084419;28;20195;-65
2022/01/27 10:48:15;;;;;;;8.17;7.33;;;;;;;6.88;56.13;100397.13;5092177;28;20664;-65
2022/01/27 10:50:57;;;;;;;12.50;8.23;;;;;;;6.63;56.36;100381.19;5090371;28;20196;-65
2022/01/27 10:53:43;;;;;;;11.47;9.33;;;;;;;6.74;55.75;100392.34;5092059;28;20212;-64
2022/01/27 10:56:15;;;;;;;9.50;8.70;;;;;;;6.64;56.11;100388.13;5091739;28;20199;-65
2022/01/27 10:58:44;;;;;;;9.30;8.40;;;;;;;6.53;56.33;100377.81;5071641;28;20195;-65
2022/01/27 11:01:11;;;;;;;8.33;7.60;;;;;;;6.65;56.73;100379.25;5071634;28;20223;-64
2022/01/27 11:03:38;;;;;;;12.23;8.33;;;;;;;6.67;56.84;100379.91;5086472;28;20283;-64
2022/01/27 11:06:09;;;;;;;10.80;9.77;;;;;;;6.79;56.15;100386.63;5091979;28;20246;-64
2022/01/27 11:08:39;;;;;;;8.33;7.43;;;;;;;6.94;55.31;100374.59;5091650;28;20207;-64
2022/01/27 11:11:06;;;;;;;15.93;9.13;;;;;;;6.81;55.66;100353.00;5091017;28;20670;-65
2022/01/27 11:13:35;;;;;;;9.77;8.77;;;;;;;6.95;55.67;100370.97;5092083;28;20197;-65
2022/01/27 11:16:05;;;;;;;11.13;9.17;;;;;;;6.96;54.31;100375.25;5091871;28;20194;-65
2022/01/27 11:18:31;;;;;;;11.50;10.30;;;;;;;6.90;54.99;100371.41;5097099;28;20194;-64
2022/01/27 11:21:03;;;;;;;9.30;8.40;;;;;;;6.72;54.92;100364.44;5106332;28;20189;-63
2022/01/27 11:26:28;;;;;;;11.47;8.60;;;;;;;6.56;55.48;100361.66;5053080;28;20203;-64
2022/01/27 11:28:57;;;;;;;9.37;8.53;;;;;;;6.46;55.68;100367.00;5090850;28;20207;-64
2022/01/27 11:31:39;;;;;;;7.93;7.23;;;;;;;6.51;55.46;100361.28;5091294;28;20264;-64
2022/01/27 11:34:09;;;;;;;11.33;8.67;;;;;;;6.61;55.39;100356.78;5089873;28;20272;-64
2022/01/27 11:36:38;;;;;;;12.00;9.07;;;;;;;6.81;55.43;100363.56;5091691;28;20239;-65
2022/01/27 11:39:10;;;;;;;14.40;9.30;;;;;;;6.91;54.42;100359.03;5094806;28;20652;-64
2022/01/27 11:41:45;;;;;;;15.73;10.90;;;;;;;6.68;55.25;100357.81;5092100;28;20876;-64
2022/01/27 11:44:22;;;;;;;21.83;10.30;;;;;;;6.92;55.11;100361.53;5094713;28;20235;-64
2022/01/27 11:47:18;;;;;;;25.27;10.77;;;;;;;7.01;54.25;100349.19;5095032;28;20197;-65
2022/01/27 11:50:04;;;;;;;10.70;9.63;;;;;;;6.92;54.73;100355.41;5093148;28;20214;-65
2022/01/27 11:52:33;;;;;;;26.70;14.37;;;;;;;7.09;54.23;100351.91;5093949;28;20293;-64
2022/01/27 11:55:33;;;;;;;17.43;11.90;;;;;;;7.19;53.96;100345.56;5094985;28;20195;-65
2022/01/27 11:58:01;;;;;;;14.20;10.80;;;;;;;7.07;54.17;100343.31;5095334;28;20307;-65
2022/01/27 12:00:29;;;;;;;14.77;7.87;;;;;;;7.06;53.82;100337.19;5094744;28;20239;-65
2022/01/27 12:03:12;;;;;;;11.10;7.97;;;;;;;7.12;53.82;100328.69;5094962;28;20218;-65